Time;durP1;ratioP1;P1;durP2;ratioP2;P2;SDS_P1;SDS_P2;PMS_P1;PMS_P2;Temp;Humidity;BMP_temperature;BMP_pressure;BME280_temperature;BME280_humidity;BME280_pressure;Samples;Min_cycle;Max_cycle;Signal;HPM_P1;HPM_P2
2023/09/26 00:02:11;;;;;;;2.20;1.65;;;20.80;98.60;;;;;;5055078;28;20221;-57
2023/09/26 00:04:39;;;;;;;2.83;2.22;;;20.80;98.50;;;;;;5055917;28;20201;-59
2023/09/26 00:07:07;;;;;;;1.57;1.40;;;20.80;98.60;;;;;;5056905;28;20198;-53
2023/09/26 00:09:35;;;;;;;1.92;1.48;;;20.80;98.50;;;;;;5055683;28;22349;-59
2023/09/26 00:12:02;;;;;;;1.80;1.42;;;20.80;98.60;;;;;;5054645;28;20221;-59
2023/09/26 00:14:29;;;;;;;1.98;1.75;;;20.80;98.50;;;;;;5051841;28;20219;-61
2023/09/26 00:16:56;;;;;;;2.97;2.17;;;20.80;98.50;;;;;;5054125;28;20202;-53
2023/09/26 00:19:23;;;;;;;2.20;1.90;;;20.80;98.50;;;;;;5055438;28;20202;-56
2023/09/26 00:21:51;;;;;;;1.80;1.70;;;20.80;98.50;;;;;;5049340;28;20215;-57
2023/09/26 00:24:17;;;;;;;2.88;2.13;;;20.80;98.50;;;;;;5050674;28;20889;-57
2023/09/26 00:26:44;;;;;;;2.33;2.00;;;20.80;98.50;;;;;;5055591;28;20658;-50
2023/09/26 00:29:11;;;;;;;2.20;2.00;;;20.80;98.50;;;;;;5056399;28;20207;-61
2023/09/26 00:31:38;;;;;;;1.90;1.70;;;20.80;98.50;;;;;;5058516;28;20205;-55
2023/09/26 00:34:05;;;;;;;1.45;1.35;;;20.80;98.50;;;;;;5055209;28;20205;-55
2023/09/26 00:36:32;;;;;;;1.92;1.70;;;20.80;98.50;;;;;;5055951;28;20206;-56
2023/09/26 00:39:00;;;;;;;2.15;1.95;;;20.80;98.50;;;;;;5055944;28;20720;-55
2023/09/26 00:41:27;;;;;;;1.60;1.50;;;20.80;98.50;;;;;;5059807;28;20681;-62
2023/09/26 00:43:53;;;;;;;2.60;1.50;;;20.80;98.50;;;;;;5060250;28;20194;-56
2023/09/26 00:46:20;;;;;;;1.90;1.70;;;20.80;98.50;;;;;;5059537;28;20195;-54
2023/09/26 00:48:47;;;;;;;2.42;1.88;;;20.80;98.50;;;;;;5060782;28;20195;-55
2023/09/26 00:51:14;;;;;;;2.20;2.00;;;20.80;98.50;;;;;;5063897;28;20206;-57
2023/09/26 00:53:42;;;;;;;1.75;1.65;;;20.80;98.50;;;;;;5060183;28;20199;-59
2023/09/26 00:56:10;;;;;;;2.30;2.05;;;20.80;98.50;;;;;;5061598;28;20231;-57
2023/09/26 00:58:38;;;;;;;1.85;1.63;;;20.80;98.50;;;;;;5063853;28;20199;-53
2023/09/26 01:01:06;;;;;;;2.15;1.85;;;20.80;98.50;;;;;;5058596;28;20646;-57
2023/09/26 01:03:33;;;;;;;1.85;1.55;;;20.80;98.50;;;;;;5059958;28;20342;-57
2023/09/26 01:06:02;;;;;;;1.77;1.50;;;20.80;98.50;;;;;;5060036;28;20206;-54
2023/09/26 01:08:30;;;;;;;2.83;1.88;;;20.80;98.60;;;;;;5063206;28;20280;-58
2023/09/26 01:10:58;;;;;;;1.95;1.58;;;20.80;98.50;;;;;;5059313;28;22788;-56
2023/09/26 01:13:26;;;;;;;1.50;1.40;;;20.80;98.50;;;;;;5058648;28;20198;-55
2023/09/26 01:15:53;;;;;;;1.92;1.80;;;20.80;98.50;;;;;;5059845;28;20189;-56
2023/09/26 01:18:23;;;;;;;2.23;1.93;;;20.80;98.50;;;;;;5058873;28;20217;-59
2023/09/26 01:20:50;;;;;;;1.90;1.42;;;20.80;98.50;;;;;;5059554;28;20456;-58
2023/09/26 01:23:19;;;;;;;2.08;1.40;;;20.80;98.40;;;;;;5060647;28;20198;-59
2023/09/26 01:25:47;;;;;;;1.70;1.52;;;20.80;98.80;;;;;;5057643;28;20204;-58
2023/09/26 01:28:18;;;;;;;1.80;1.55;;;20.80;98.50;;;;;;5058483;28;20213;-58
2023/09/26 01:30:45;;;;;;;2.08;1.50;;;20.80;98.50;;;;;;5058426;28;20205;-56
2023/09/26 01:33:16;;;;;;;1.58;1.38;;;20.80;98.40;;;;;;5059261;28;20202;-56
2023/09/26 01:35:43;;;;;;;1.75;1.50;;;20.80;98.40;;;;;;5059147;28;20317;-57
2023/09/26 01:38:10;;;;;;;1.67;1.35;;;20.80;98.40;;;;;;5060469;28;20198;-55
2023/09/26 01:40:36;;;;;;;1.75;1.35;;;20.80;98.40;;;;;;5058234;28;20194;-58
2023/09/26 01:43:05;;;;;;;1.60;1.40;;;20.70;98.40;;;;;;5058938;28;20237;-61
2023/09/26 01:45:31;;;;;;;1.98;1.83;;;20.80;98.40;;;;;;5057311;28;20195;-55
2023/09/26 01:47:59;;;;;;;2.10;1.55;;;20.80;98.40;;;;;;5059462;28;20194;-57
2023/09/26 01:50:26;;;;;;;1.75;1.65;;;20.80;98.40;;;;;;5058687;28;20201;-62
2023/09/26 01:52:53;;;;;;;2.13;1.92;;;20.80;98.50;;;;;;5062155;28;20319;-51
2023/09/26 01:55:21;;;;;;;1.85;1.40;;;20.80;98.40;;;;;;5058575;28;20189;-54
2023/09/26 01:57:48;;;;;;;1.95;1.73;;;20.80;98.40;;;;;;5057672;28;20205;-56
2023/09/26 02:00:19;;;;;;;1.80;1.70;;;20.80;98.40;;;;;;5055702;28;20198;-58
2023/09/26 02:02:46;;;;;;;1.50;1.40;;;20.70;98.40;;;;;;5054457;28;20214;-54
2023/09/26 02:05:15;;;;;;;2.13;1.92;;;20.70;98.40;;;;;;5051532;28;20677;-60
2023/09/26 02:07:41;;;;;;;1.75;1.58;;;20.70;98.70;;;;;;5061474;28;20243;-58
2023/09/26 02:10:09;;;;;;;2.03;1.55;;;20.70;98.40;;;;;;5061001;28;20298;-54
2023/09/26 02:12:38;;;;;;;1.52;1.42;;;20.70;98.70;;;;;;5063115;28;20202;-56
2023/09/26 02:15:08;;;;;;;2.05;1.85;;;20.70;98.40;;;;;;5057814;28;20617;-59
2023/09/26 02:17:36;;;;;;;1.55;1.45;;;20.70;98.40;;;;;;5059995;28;20202;-57
2023/09/26 02:20:08;;;;;;;2.28;1.52;;;20.70;98.40;;;;;;5057433;28;20201;-55
2023/09/26 02:22:36;;;;;;;1.60;1.40;;;20.70;98.40;;;;;;5057033;28;20241;-53
2023/09/26 02:25:03;;;;;;;1.63;1.50;;;20.70;98.40;;;;;;5056269;28;20794;-57
2023/09/26 02:27:30;;;;;;;2.20;1.92;;;20.70;98.40;;;;;;5055225;28;21914;-56
2023/09/26 02:29:58;;;;;;;2.10;1.88;;;20.70;98.40;;;;;;5059202;28;20559;-57
2023/09/26 02:32:25;;;;;;;2.00;1.60;;;20.70;98.40;;;;;;5052579;28;20199;-58
2023/09/26 02:34:53;;;;;;;1.73;1.45;;;20.80;98.40;;;;;;5057310;28;20220;-60
2023/09/26 02:37:19;;;;;;;1.60;1.30;;;20.70;98.40;;;;;;5058331;28;20202;-55
2023/09/26 02:39:46;;;;;;;2.05;1.73;;;20.70;98.40;;;;;;5060486;28;20667;-53
2023/09/26 02:42:14;;;;;;;1.90;1.70;;;20.70;98.30;;;;;;5058540;28;20611;-52
2023/09/26 02:44:41;;;;;;;2.17;1.98;;;20.70;98.40;;;;;;5056199;28;20660;-57
2023/09/26 02:47:07;;;;;;;4.35;1.50;;;20.70;98.30;;;;;;5059263;28;20198;-59
2023/09/26 02:49:34;;;;;;;2.10;1.77;;;20.70;98.30;;;;;;5058930;28;20210;-55
2023/09/26 02:52:02;;;;;;;1.85;1.65;;;20.70;98.30;;;;;;5061310;28;20229;-58
2023/09/26 02:54:30;;;;;;;2.25;2.05;;;20.70;98.30;;;;;;5058756;28;20202;-57
2023/09/26 02:56:57;;;;;;;1.90;1.65;;;20.70;98.30;;;;;;5053765;28;20753;-54
2023/09/26 02:59:24;;;;;;;2.00;1.77;;;20.70;98.40;;;;;;5062028;28;20338;-56
2023/09/26 03:01:51;;;;;;;1.70;1.58;;;20.70;98.30;;;;;;5056464;28;20815;-53
2023/09/26 03:04:18;;;;;;;3.00;1.70;;;20.70;98.30;;;;;;5058278;28;20271;-57
2023/09/26 03:06:45;;;;;;;1.85;1.75;;;20.70;98.40;;;;;;5058670;28;20191;-58
2023/09/26 03:09:15;;;;;;;1.40;1.30;;;20.70;98.30;;;;;;5059583;28;20206;-59
2023/09/26 03:11:41;;;;;;;2.50;1.73;;;20.70;98.40;;;;;;5055541;28;20205;-56
2023/09/26 03:14:08;;;;;;;1.80;1.60;;;20.70;98.30;;;;;;5055662;28;20186;-58
2023/09/26 03:16:35;;;;;;;1.67;1.58;;;20.70;98.30;;;;;;5055638;28;20213;-58
2023/09/26 03:19:01;;;;;;;1.75;1.60;;;20.70;98.30;;;;;;5058110;28;20199;-61
2023/09/26 03:21:28;;;;;;;2.30;1.60;;;20.70;98.30;;;;;;5058679;28;20210;-54
2023/09/26 03:23:55;;;;;;;1.63;1.50;;;20.70;98.30;;;;;;5057054;28;20199;-55
2023/09/26 03:26:23;;;;;;;1.83;1.30;;;20.70;98.40;;;;;;5056312;28;20340;-56
2023/09/26 03:28:50;;;;;;;1.55;1.35;;;20.70;98.30;;;;;;5056403;28;20204;-61
2023/09/26 03:31:17;;;;;;;1.58;1.48;;;20.70;98.30;;;;;;5053105;28;20474;-54
2023/09/26 03:33:43;;;;;;;1.83;1.30;;;20.70;98.30;;;;;;5054663;28;20208;-58
2023/09/26 03:36:10;;;;;;;1.88;1.67;;;20.70;98.30;;;;;;5058001;28;20206;-54
2023/09/26 03:38:37;;;;;;;1.42;1.30;;;20.70;98.30;;;;;;5057701;28;20205;-58
2023/09/26 03:41:06;;;;;;;1.50;1.30;;;20.70;98.30;;;;;;5058649;28;20240;-58
2023/09/26 03:43:34;;;;;;;1.40;1.10;;;20.70;98.30;;;;;;5059191;28;20240;-58
2023/09/26 03:46:05;;;;;;;1.50;1.30;;;20.70;98.30;;;;;;5059230;28;20198;-56
2023/09/26 03:48:33;;;;;;;2.33;1.98;;;20.70;98.40;;;;;;5059003;28;20240;-55
2023/09/26 03:51:08;;;;;;;1.27;1.02;;;20.70;98.30;;;;;;5056861;28;20420;-58
2023/09/26 03:53:35;;;;;;;1.42;1.33;;;20.70;98.30;;;;;;5058773;28;20390;-57
2023/09/26 03:56:02;;;;;;;2.45;2.05;;;20.70;98.40;;;;;;5049430;28;20212;-57
2023/09/26 03:58:28;;;;;;;1.55;1.27;;;20.70;98.30;;;;;;5055284;28;20193;-61
2023/09/26 04:00:56;;;;;;;1.90;1.60;;;20.70;98.30;;;;;;5050918;28;20194;-55
2023/09/26 04:03:23;;;;;;;1.70;1.55;;;20.60;98.30;;;;;;5052943;28;20214;-54
2023/09/26 04:05:57;;;;;;;1.90;1.70;;;20.70;98.30;;;;;;5053416;28;20225;-59
2023/09/26 04:08:23;;;;;;;1.83;1.48;;;20.60;98.30;;;;;;5057342;28;20646;-57
2023/09/26 04:10:50;;;;;;;1.60;1.45;;;20.60;98.30;;;;;;5055146;28;20197;-58
2023/09/26 04:13:17;;;;;;;1.70;1.42;;;20.70;98.30;;;;;;5057413;28;20213;-53
2023/09/26 04:15:44;;;;;;;1.83;1.40;;;20.70;98.30;;;;;;5058997;28;20710;-57
2023/09/26 04:18:12;;;;;;;1.70;1.55;;;20.60;98.30;;;;;;5056854;28;20209;-52
2023/09/26 04:20:39;;;;;;;1.40;1.30;;;20.70;98.40;;;;;;5057578;28;20723;-56
2023/09/26 04:23:06;;;;;;;1.90;1.27;;;20.60;98.30;;;;;;5056612;28;21392;-59
2023/09/26 04:25:35;;;;;;;1.63;1.38;;;20.60;98.30;;;;;;5053156;28;20193;-51
2023/09/26 04:28:03;;;;;;;1.42;1.33;;;20.60;98.30;;;;;;5050270;28;20267;-57
2023/09/26 04:30:30;;;;;;;1.85;1.35;;;20.70;98.30;;;;;;5054074;28;20281;-55
2023/09/26 04:32:57;;;;;;;1.25;1.15;;;20.60;98.30;;;;;;5052846;28;21638;-51
2023/09/26 04:35:25;;;;;;;1.60;1.23;;;20.60;98.30;;;;;;5056145;28;20199;-51
2023/09/26 04:37:52;;;;;;;1.83;1.42;;;20.60;98.30;;;;;;5058104;28;20193;-61
2023/09/26 04:40:19;;;;;;;1.52;1.40;;;20.60;98.30;;;;;;5056195;28;20198;-60
2023/09/26 04:42:48;;;;;;;1.63;1.30;;;20.60;98.30;;;;;;5057372;28;20223;-59
2023/09/26 04:45:15;;;;;;;2.05;1.90;;;20.60;98.30;;;;;;5055790;28;20831;-59
2023/09/26 04:47:42;;;;;;;1.90;1.50;;;20.60;98.30;;;;;;5056382;28;20213;-57
2023/09/26 04:50:09;;;;;;;1.42;1.20;;;20.60;98.30;;;;;;5057691;28;20662;-56
2023/09/26 04:52:37;;;;;;;1.75;1.40;;;20.60;98.30;;;;;;5059054;28;20193;-54
2023/09/26 04:55:06;;;;;;;1.60;1.35;;;20.60;98.30;;;;;;5056803;28;20539;-52
2023/09/26 04:57:32;;;;;;;1.30;1.20;;;20.60;98.30;;;;;;5056794;28;20372;-57
2023/09/26 04:59:59;;;;;;;1.45;1.35;;;20.60;98.30;;;;;;5055195;28;20201;-55
2023/09/26 05:02:26;;;;;;;1.63;1.30;;;20.60;98.60;;;;;;5052622;28;20569;-56
2023/09/26 05:04:52;;;;;;;1.55;1.45;;;20.60;98.30;;;;;;5059031;28;20464;-58
2023/09/26 05:07:19;;;;;;;1.75;1.40;;;20.60;98.30;;;;;;5058876;28;20198;-54
2023/09/26 05:09:47;;;;;;;1.70;1.40;;;20.60;98.30;;;;;;5057076;28;20640;-54
2023/09/26 05:12:14;;;;;;;1.40;1.30;;;20.60;98.30;;;;;;5056994;28;20195;-56
2023/09/26 05:14:41;;;;;;;1.50;1.38;;;20.60;98.30;;;;;;5056730;28;21968;-58
2023/09/26 05:17:07;;;;;;;1.45;1.33;;;20.60;98.30;;;;;;5053811;28;20201;-57
2023/09/26 05:19:34;;;;;;;1.73;1.63;;;20.60;98.30;;;;;;5055217;28;20202;-55
2023/09/26 05:22:01;;;;;;;1.50;1.40;;;20.60;98.30;;;;;;5056575;28;20209;-57
2023/09/26 05:24:27;;;;;;;1.60;1.50;;;20.60;98.30;;;;;;5056229;28;20219;-58
2023/09/26 05:26:55;;;;;;;1.48;1.30;;;20.60;98.30;;;;;;5061052;28;20204;-56
2023/09/26 05:29:22;;;;;;;1.60;1.30;;;20.60;98.30;;;;;;5057359;28;20205;-56
2023/09/26 05:31:49;;;;;;;1.50;1.40;;;20.60;98.30;;;;;;5059789;28;20493;-57
2023/09/26 05:34:15;;;;;;;1.52;1.42;;;20.60;98.30;;;;;;5059835;28;20209;-59
2023/09/26 05:36:42;;;;;;;2.05;1.52;;;20.60;98.30;;;;;;5064117;28;20205;-55
2023/09/26 05:39:09;;;;;;;1.45;1.20;;;20.60;98.30;;;;;;5064349;28;20209;-59
2023/09/26 05:41:36;;;;;;;1.95;1.30;;;20.60;98.30;;;;;;5057697;28;20228;-58
2023/09/26 05:44:04;;;;;;;1.58;1.48;;;20.60;98.30;;;;;;5058758;28;20520;-60
2023/09/26 05:46:31;;;;;;;1.83;1.60;;;20.60;98.30;;;;;;5056808;28;20213;-56
2023/09/26 05:48:57;;;;;;;1.38;1.10;;;20.60;98.30;;;;;;5056607;28;21177;-57
2023/09/26 05:51:24;;;;;;;1.95;1.35;;;20.60;98.30;;;;;;5058234;28;20202;-56
2023/09/26 05:53:51;;;;;;;1.38;1.23;;;20.50;98.30;;;;;;5059638;28;21013;-56
2023/09/26 05:56:17;;;;;;;1.40;1.20;;;20.50;98.30;;;;;;5060855;28;20214;-51
2023/09/26 05:58:46;;;;;;;1.30;1.20;;;20.50;98.30;;;;;;5055807;28;20199;-60
2023/09/26 06:01:14;;;;;;;2.05;1.45;;;20.50;98.30;;;;;;5058139;28;20828;-54
2023/09/26 06:03:41;;;;;;;1.60;1.40;;;20.60;98.40;;;;;;5055915;28;20222;-59
2023/09/26 06:06:08;;;;;;;1.40;1.20;;;20.50;98.30;;;;;;5057293;28;20190;-55
2023/09/26 06:08:34;;;;;;;1.92;1.67;;;20.60;98.40;;;;;;5061065;28;20194;-54
2023/09/26 06:11:02;;;;;;;2.00;1.80;;;20.60;98.50;;;;;;5056281;28;20201;-55
2023/09/26 06:13:29;;;;;;;4.70;1.20;;;20.60;98.60;;;;;;5059346;28;20199;-61
2023/09/26 06:15:55;;;;;;;3.03;1.50;;;20.60;98.70;;;;;;5057794;28;20220;-53
2023/09/26 06:18:25;;;;;;;1.60;1.25;;;20.60;98.70;;;;;;5055133;28;20201;-57
2023/09/26 06:20:53;;;;;;;3.08;1.30;;;20.60;98.80;;;;;;5058621;28;20706;-60
2023/09/26 06:23:21;;;;;;;1.85;1.70;;;20.60;99.10;;;;;;5057155;28;20263;-56
2023/09/26 06:25:57;;;;;;;4.13;1.95;;;20.60;99.10;;;;;;5055856;28;20205;-58
2023/09/26 06:28:24;;;;;;;5.78;1.75;;;20.60;99.20;;;;;;5054636;28;20584;-51
2023/09/26 06:30:51;;;;;;;4.47;1.63;;;20.70;99.40;;;;;;5053396;28;20734;-58
2023/09/26 06:33:17;;;;;;;3.67;1.80;;;20.60;99.30;;;;;;5053694;28;20628;-57
2023/09/26 06:35:46;;;;;;;1.85;1.25;;;20.60;99.30;;;;;;5058872;28;20213;-53
2023/09/26 06:38:12;;;;;;;3.25;1.67;;;20.70;99.40;;;;;;5059301;28;20202;-52
2023/09/26 06:40:41;;;;;;;4.40;2.17;;;20.70;99.40;;;;;;5056029;28;20205;-56
2023/09/26 06:43:08;;;;;;;4.90;1.98;;;20.70;99.40;;;;;;5054762;28;20224;-56
2023/09/26 06:45:39;;;;;;;5.07;1.50;;;20.70;99.40;;;;;;5054739;28;20186;-56
2023/09/26 06:48:06;;;;;;;4.80;1.63;;;20.70;99.50;;;;;;5059434;28;20290;-57
2023/09/26 06:50:33;;;;;;;4.50;2.03;;;20.70;99.50;;;;;;5060742;28;20200;-56
2023/09/26 06:53:02;;;;;;;4.55;1.45;;;20.70;99.50;;;;;;5057067;28;20672;-57
2023/09/26 06:55:29;;;;;;;4.53;1.55;;;20.70;99.50;;;;;;5058589;28;20202;-57
2023/09/26 06:57:55;;;;;;;2.45;1.85;;;20.70;99.60;;;;;;5057087;28;20190;-53
2023/09/26 07:00:24;;;;;;;4.80;1.60;;;20.70;99.80;;;;;;5054466;28;20942;-56
2023/09/26 07:02:51;;;;;;;2.45;1.80;;;20.70;99.40;;;;;;5057336;28;20209;-57
2023/09/26 07:05:18;;;;;;;9.77;1.77;;;20.70;99.50;;;;;;5056834;28;20205;-60
2023/09/26 07:07:45;;;;;;;3.75;1.77;;;20.70;99.50;;;;;;5057792;28;20233;-60
2023/09/26 07:10:13;;;;;;;6.20;1.85;;;20.70;99.30;;;;;;5055760;28;20206;-59
2023/09/26 07:12:41;;;;;;;1.98;1.52;;;20.70;99.30;;;;;;5060353;28;20201;-57
2023/09/26 07:15:11;;;;;;;2.17;1.92;;;20.70;99.20;;;;;;5061557;28;20636;-56
2023/09/26 07:17:38;;;;;;;3.58;1.85;;;20.70;99.10;;;;;;5059756;28;20746;-57
2023/09/26 07:20:07;;;;;;;2.13;1.92;;;20.70;99.00;;;;;;5061833;28;20904;-55
2023/09/26 07:22:34;;;;;;;6.47;2.55;;;20.70;98.70;;;;;;5056947;28;20199;-53
2023/09/26 07:25:01;;;;;;;6.03;2.53;;;20.70;98.70;;;;;;5058174;28;20216;-54
2023/09/26 07:27:29;;;;;;;5.82;2.53;;;20.70;98.70;;;;;;5055357;28;20289;-58
2023/09/26 07:29:56;;;;;;;3.95;2.70;;;20.70;98.70;;;;;;5056842;28;20198;-56
2023/09/26 07:32:22;;;;;;;2.45;2.25;;;20.70;98.90;;;;;;5056800;28;20747;-58
2023/09/26 07:34:49;;;;;;;3.80;2.80;;;20.70;98.40;;;;;;5060879;28;20194;-60
2023/09/26 07:37:16;;;;;;;3.90;2.67;;;20.70;98.30;;;;;;5058728;28;20253;-58
2023/09/26 07:39:45;;;;;;;4.05;2.83;;;20.70;98.10;;;;;;5057433;28;20191;-58
2023/09/26 07:42:11;;;;;;;3.90;2.58;;;20.70;98.00;;;;;;5058613;28;20202;-60
2023/09/26 07:44:39;;;;;;;3.53;3.17;;;20.70;98.00;;;;;;5054781;28;20218;-60
2023/09/26 07:47:05;;;;;;;6.00;3.30;;;20.70;97.70;;;;;;5052050;28;20194;-58
2023/09/26 07:49:32;;;;;;;6.22;3.92;;;20.70;97.60;;;;;;5056998;28;20193;-59
2023/09/26 07:51:59;;;;;;;3.08;2.78;;;20.70;97.50;;;;;;5054006;28;20194;-57
2023/09/26 07:54:26;;;;;;;5.15;3.00;;;20.70;97.30;;;;;;5053311;28;20667;-53
2023/09/26 07:56:52;;;;;;;5.90;3.20;;;20.70;97.50;;;;;;5057752;28;20726;-55
2023/09/26 07:59:19;;;;;;;5.40;2.85;;;20.70;97.30;;;;;;5052093;28;20204;-59
2023/09/26 08:01:47;;;;;;;3.40;3.08;;;20.70;97.50;;;;;;5049499;28;20189;-55
2023/09/26 08:04:14;;;;;;;6.07;3.45;;;20.70;97.00;;;;;;5055992;28;20218;-60
2023/09/26 08:06:41;;;;;;;5.07;3.80;;;20.70;97.20;;;;;;5051315;28;20775;-56
2023/09/26 08:09:07;;;;;;;4.00;3.10;;;20.70;97.20;;;;;;5054355;28;20667;-57
2023/09/26 08:11:34;;;;;;;26.92;4.40;;;20.70;97.10;;;;;;5054768;28;20256;-57
2023/09/26 08:14:01;;;;;;;3.45;3.00;;;20.70;97.30;;;;;;5056319;28;20206;-54
2023/09/26 08:16:28;;;;;;;7.10;4.30;;;20.70;97.20;;;;;;5055202;28;20194;-57
2023/09/26 08:18:56;;;;;;;8.25;3.53;;;20.70;97.20;;;;;;5053791;28;20624;-59
2023/09/26 08:21:24;;;;;;;3.60;3.28;;;20.70;97.20;;;;;;5050520;28;20204;-60
2023/09/26 08:23:51;;;;;;;4.60;3.67;;;20.70;97.20;;;;;;5057512;28;20213;-57
2023/09/26 08:26:18;;;;;;;5.75;3.38;;;20.70;97.20;;;;;;5055991;28;20244;-57
2023/09/26 08:28:46;;;;;;;7.00;4.35;;;20.70;97.30;;;;;;5054337;28;20206;-54
2023/09/26 08:31:15;;;;;;;6.20;4.15;;;20.70;97.30;;;;;;5050106;28;20313;-56
2023/09/26 08:33:43;;;;;;;9.48;4.68;;;20.70;97.30;;;;;;5052010;28;20197;-59
2023/09/26 08:36:15;;;;;;;6.10;4.40;;;20.70;97.30;;;;;;5055681;28;20198;-53
2023/09/26 08:38:42;;;;;;;3.47;3.28;;;20.70;97.40;;;;;;5053956;28;20625;-56
2023/09/26 08:41:10;;;;;;;5.50;3.30;;;20.70;97.40;;;;;;5057741;28;20201;-56
2023/09/26 08:43:37;;;;;;;4.68;3.63;;;20.70;97.40;;;;;;5055299;28;20922;-55
2023/09/26 08:46:04;;;;;;;3.80;3.00;;;20.70;97.50;;;;;;5058866;28;20673;-51
2023/09/26 08:48:31;;;;;;;4.95;3.17;;;20.70;98.00;;;;;;5057358;28;20881;-57
2023/09/26 08:50:58;;;;;;;5.20;4.35;;;20.70;97.60;;;;;;5058305;28;20206;-57
2023/09/26 08:53:26;;;;;;;6.40;3.55;;;20.70;97.60;;;;;;5057899;28;20641;-56
2023/09/26 08:55:54;;;;;;;3.50;3.20;;;20.70;97.60;;;;;;5053571;28;20520;-58
2023/09/26 08:58:21;;;;;;;5.25;3.70;;;20.70;97.70;;;;;;5056693;28;20218;-58
2023/09/26 09:00:49;;;;;;;4.78;3.03;;;20.70;97.70;;;;;;5053051;28;20204;-57
2023/09/26 09:03:16;;;;;;;6.07;3.20;;;20.70;97.80;;;;;;5056556;28;20198;-61
2023/09/26 09:05:44;;;;;;;3.80;2.67;;;20.70;97.80;;;;;;5051147;28;20708;-61
2023/09/26 09:08:18;;;;;;;6.63;2.65;;;20.70;98.00;;;;;;5055590;28;20731;-59
2023/09/26 09:10:54;;;;;;;4.40;3.25;;;20.70;98.30;;;;;;5054075;28;21275;-61
2023/09/26 09:13:29;;;;;;;6.22;3.08;;;20.80;98.60;;;;;;5056845;28;20201;-59
2023/09/26 09:16:09;;;;;;;4.32;2.60;;;20.80;98.50;;;;;;5054020;28;20673;-52
2023/09/26 09:18:36;;;;;;;3.08;2.78;;;20.80;98.50;;;;;;5055989;28;20202;-56
2023/09/26 09:21:21;;;;;;;5.88;2.35;;;20.80;98.40;;;;;;5054560;28;20192;-60
2023/09/26 09:23:49;;;;;;;2.80;2.60;;;20.80;98.40;;;;;;5054721;28;21605;-59
2023/09/26 09:26:17;;;;;;;6.43;2.83;;;20.80;98.50;;;;;;5052548;28;20206;-61
2023/09/26 09:28:44;;;;;;;8.10;2.92;;;20.90;98.60;;;;;;5049047;28;20226;-62
2023/09/26 09:31:13;;;;;;;4.20;2.60;;;20.90;98.60;;;;;;5055235;28;20206;-61
2023/09/26 09:33:44;;;;;;;3.90;3.35;;;20.90;98.70;;;;;;5053799;28;20469;-55
2023/09/26 09:36:12;;;;;;;3.95;3.35;;;20.90;98.60;;;;;;5055341;28;20196;-57
2023/09/26 09:38:39;;;;;;;5.68;2.58;;;20.90;98.60;;;;;;5056109;28;20194;-52
2023/09/26 09:41:06;;;;;;;4.72;2.90;;;21.00;98.90;;;;;;5050896;28;20324;-55
2023/09/26 09:43:34;;;;;;;3.47;2.92;;;21.00;98.90;;;;;;5051358;28;20198;-62
2023/09/26 09:46:06;;;;;;;3.07;2.87;;;21.00;98.80;;;;;;5055368;28;20198;-62
2023/09/26 09:48:41;;;;;;;7.27;2.57;;;21.00;98.70;;;;;;5055246;28;20460;-61
2023/09/26 09:51:10;;;;;;;3.17;2.43;;;21.10;98.50;;;;;;5049382;28;21184;-60
2023/09/26 09:53:38;;;;;;;3.08;2.20;;;21.00;98.30;;;;;;5051284;28;20544;-60
2023/09/26 09:56:08;;;;;;;4.90;3.63;;;21.10;98.20;;;;;;5052311;28;20865;-58
2023/09/26 09:58:40;;;;;;;3.80;3.27;;;21.10;98.20;;;;;;5056419;28;20462;-61
2023/09/26 10:01:08;;;;;;;5.47;3.17;;;21.10;98.40;;;;;;5056926;28;20452;-59
2023/09/26 10:03:36;;;;;;;5.20;2.97;;;21.10;98.20;;;;;;5052657;28;20467;-61
2023/09/26 10:06:07;;;;;;;5.60;3.37;;;21.20;98.10;;;;;;5054287;28;20999;-65
2023/09/26 10:08:34;;;;;;;3.07;2.70;;;21.20;98.20;;;;;;5053531;28;20800;-53
2023/09/26 10:11:02;;;;;;;6.57;3.10;;;21.20;98.30;;;;;;5055315;28;20475;-64
2023/09/26 10:13:28;;;;;;;3.60;3.13;;;21.30;98.30;;;;;;5051122;28;20544;-60
2023/09/26 10:16:11;;;;;;;5.03;2.70;;;21.30;98.30;;;;;;5053238;28;20827;-59
2023/09/26 10:18:39;;;;;;;6.03;3.37;;;21.40;98.20;;;;;;5050496;28;20625;-62
2023/09/26 10:21:19;;;;;;;4.20;3.17;;;21.40;98.10;;;;;;5054213;28;20483;-59
2023/09/26 10:24:22;;;;;;;4.10;2.50;;;21.40;98.30;;;;;;5051471;28;20462;-67
2023/09/26 10:26:50;;;;;;;3.57;2.83;;;21.50;98.40;;;;;;5053986;28;20599;-61
2023/09/26 10:29:23;;;;;;;5.43;2.67;;;21.50;98.50;;;;;;5054744;28;20455;-62
2023/09/26 10:31:54;;;;;;;2.60;2.40;;;21.60;98.20;;;;;;5054417;28;20456;-62
2023/09/26 10:34:24;;;;;;;3.77;2.43;;;21.60;98.20;;;;;;5058773;28;20453;-58
2023/09/26 10:36:50;;;;;;;4.43;2.47;;;21.60;98.20;;;;;;5055673;28;20455;-62
2023/09/26 10:39:17;;;;;;;5.20;3.20;;;21.60;98.10;;;;;;5055368;28;20471;-59
2023/09/26 10:41:44;;;;;;;3.13;2.93;;;21.70;98.10;;;;;;5057404;28;20952;-67
2023/09/26 10:44:11;;;;;;;3.20;2.90;;;21.70;98.10;;;;;;5061154;28;22159;-61
2023/09/26 10:46:37;;;;;;;4.63;3.30;;;21.60;98.20;;;;;;5058050;28;20748;-62
2023/09/26 10:49:05;;;;;;;10.97;3.20;;;21.70;98.40;;;;;;5058431;28;20460;-60
2023/09/26 10:51:32;;;;;;;4.27;3.87;;;21.70;98.60;;;;;;5056057;28;20461;-66
2023/09/26 10:53:59;;;;;;;3.97;3.23;;;21.70;98.60;;;;;;5054583;28;20458;-56
2023/09/26 10:56:25;;;;;;;6.17;3.87;;;21.70;98.80;;;;;;5054230;28;20468;-59
2023/09/26 10:58:55;;;;;;;5.57;4.20;;;21.70;98.70;;;;;;5052043;28;20457;-60
2023/09/26 11:01:21;;;;;;;3.60;3.30;;;21.70;98.90;;;;;;5056775;28;21086;-60
2023/09/26 11:03:48;;;;;;;4.40;3.60;;;21.70;98.80;;;;;;5054691;28;20585;-64
2023/09/26 11:06:17;;;;;;;7.60;3.60;;;21.70;98.60;;;;;;5054948;28;20605;-59
2023/09/26 11:08:44;;;;;;;4.37;3.80;;;21.70;98.60;;;;;;5054625;28;21180;-62
2023/09/26 11:11:12;;;;;;;7.43;4.17;;;21.70;98.70;;;;;;5054467;28;20941;-54
2023/09/26 11:13:39;;;;;;;3.35;3.05;;;21.70;98.70;;;;;;5056858;28;20464;-57
2023/09/26 11:16:07;;;;;;;4.17;3.83;;;21.70;98.70;;;;;;5055565;28;20244;-66
2023/09/26 11:18:34;;;;;;;5.73;2.77;;;21.70;98.60;;;;;;5054804;28;21087;-65
2023/09/26 11:21:01;;;;;;;6.60;3.60;;;21.70;98.60;;;;;;5056987;28;20463;-61
2023/09/26 11:23:39;;;;;;;5.20;3.87;;;21.70;98.60;;;;;;5055339;28;20456;-61
2023/09/26 11:26:07;;;;;;;4.37;3.97;;;21.70;98.70;;;;;;5055975;28;20480;-61
2023/09/26 11:28:35;;;;;;;4.57;3.20;;;21.70;98.90;;;;;;5057977;28;20528;-65
2023/09/26 11:31:02;;;;;;;6.40;2.93;;;21.60;98.70;;;;;;5054522;28;20280;-55
2023/09/26 11:33:29;;;;;;;3.93;3.20;;;21.60;98.80;;;;;;5051776;28;21053;-63
2023/09/26 11:35:56;;;;;;;3.67;3.37;;;21.60;98.90;;;;;;5055212;28;20457;-64
2023/09/26 11:38:23;;;;;;;3.80;3.13;;;21.60;98.90;;;;;;5056280;28;20451;-61
2023/09/26 11:40:54;;;;;;;4.33;3.40;;;21.60;98.90;;;;;;5054369;28;21057;-61
2023/09/26 11:43:20;;;;;;;5.80;3.53;;;21.60;99.10;;;;;;5057204;28;21154;-60
2023/09/26 11:45:47;;;;;;;3.67;3.38;;;21.60;98.90;;;;;;5054312;28;20483;-63
2023/09/26 11:48:14;;;;;;;4.63;3.63;;;21.60;98.80;;;;;;5056511;28;20190;-59
2023/09/26 11:50:41;;;;;;;3.90;3.60;;;21.60;99.00;;;;;;5058005;28;20993;-65
2023/09/26 11:53:08;;;;;;;5.13;3.53;;;21.60;99.00;;;;;;5057361;28;21056;-57
2023/09/26 11:55:35;;;;;;;5.47;3.33;;;21.50;99.00;;;;;;5055117;28;21113;-59
2023/09/26 11:58:03;;;;;;;3.92;3.63;;;21.60;99.10;;;;;;5059363;28;20840;-57
2023/09/26 12:00:30;;;;;;;6.78;3.95;;;21.50;99.00;;;;;;5054507;28;20197;-65
2023/09/26 12:02:57;;;;;;;4.67;4.03;;;21.50;99.10;;;;;;5056025;28;20258;-58
2023/09/26 12:05:24;;;;;;;4.18;3.88;;;21.50;99.00;;;;;;5056127;28;20479;-62
2023/09/26 12:07:51;;;;;;;4.70;4.40;;;21.50;99.00;;;;;;5052554;28;20197;-58
2023/09/26 12:10:19;;;;;;;5.13;3.47;;;21.50;98.80;;;;;;5051711;28;20550;-62
2023/09/26 12:12:46;;;;;;;3.83;3.53;;;21.50;98.60;;;;;;5051732;28;20791;-63
2023/09/26 12:15:19;;;;;;;4.20;3.80;;;21.50;98.60;;;;;;5052739;28;20336;-60
2023/09/26 12:17:46;;;;;;;4.47;4.07;;;21.50;98.60;;;;;;5051755;28;20762;-59
2023/09/26 12:20:17;;;;;;;4.50;4.20;;;21.50;98.60;;;;;;5056510;28;20567;-59
2023/09/26 12:22:43;;;;;;;4.10;3.80;;;21.50;98.60;;;;;;5056841;28;20926;-59
2023/09/26 12:25:10;;;;;;;4.23;3.83;;;21.50;98.50;;;;;;5051304;28;20986;-61
2023/09/26 12:27:37;;;;;;;6.47;4.17;;;21.50;98.50;;;;;;5053966;28;20492;-61
2023/09/26 12:30:05;;;;;;;4.20;3.40;;;21.50;98.50;;;;;;5057670;28;20463;-56
2023/09/26 12:32:33;;;;;;;3.50;3.20;;;21.50;98.40;;;;;;5057442;28;21213;-62
2023/09/26 12:34:59;;;;;;;4.33;4.03;;;21.40;98.30;;;;;;5049860;28;20456;-64
2023/09/26 12:37:26;;;;;;;4.17;3.60;;;21.40;98.20;;;;;;5054126;28;20454;-57
2023/09/26 12:39:53;;;;;;;4.10;3.80;;;21.40;98.20;;;;;;5058997;28;20460;-61
2023/09/26 12:42:20;;;;;;;3.90;3.17;;;21.40;98.20;;;;;;5060618;28;20492;-57
2023/09/26 12:44:47;;;;;;;4.40;3.47;;;21.40;98.20;;;;;;5060188;28;20455;-62
2023/09/26 12:47:14;;;;;;;4.17;3.80;;;21.40;98.20;;;;;;5058515;28;21130;-57
2023/09/26 12:49:46;;;;;;;3.22;2.90;;;21.40;98.10;;;;;;5063305;28;21032;-61
2023/09/26 12:52:13;;;;;;;3.50;3.22;;;21.40;98.10;;;;;;5063443;28;20646;-62